sensor_id;sensor_type;location;lat;lon;timestamp;temperature;humidity
49224;DHT22;35050;51.316;5.994;2023-06-22T00:00:49;23.40;94.60
49224;DHT22;35050;51.316;5.994;2023-06-22T00:03:19;23.40;94.70
49224;DHT22;35050;51.316;5.994;2023-06-22T00:05:45;23.40;94.90
49224;DHT22;35050;51.316;5.994;2023-06-22T00:08:11;23.40;94.60
49224;DHT22;35050;51.316;5.994;2023-06-22T00:10:37;23.30;94.90
49224;DHT22;35050;51.316;5.994;2023-06-22T00:13:02;23.40;95.10
49224;DHT22;35050;51.316;5.994;2023-06-22T00:15:28;23.30;95.20
49224;DHT22;35050;51.316;5.994;2023-06-22T00:17:54;23.20;95.50
49224;DHT22;35050;51.316;5.994;2023-06-22T00:20:20;23.10;95.80
49224;DHT22;35050;51.316;5.994;2023-06-22T00:22:45;23.10;95.80
49224;DHT22;35050;51.316;5.994;2023-06-22T00:25:11;23.10;96.10
49224;DHT22;35050;51.316;5.994;2023-06-22T00:27:37;23.10;96.30
49224;DHT22;35050;51.316;5.994;2023-06-22T00:30:03;23.10;96.60
49224;DHT22;35050;51.316;5.994;2023-06-22T00:32:29;23.10;96.90
49224;DHT22;35050;51.316;5.994;2023-06-22T00:34:54;23.00;97.10
49224;DHT22;35050;51.316;5.994;2023-06-22T00:37:20;23.10;97.30
49224;DHT22;35050;51.316;5.994;2023-06-22T00:39:51;22.90;97.90
49224;DHT22;35050;51.316;5.994;2023-06-22T00:42:17;22.80;98.20
49224;DHT22;35050;51.316;5.994;2023-06-22T00:44:43;22.90;98.50
49224;DHT22;35050;51.316;5.994;2023-06-22T00:47:11;23.00;98.90
49224;DHT22;35050;51.316;5.994;2023-06-22T00:49:38;23.10;99.10
49224;DHT22;35050;51.316;5.994;2023-06-22T00:52:05;23.10;99.30
49224;DHT22;35050;51.316;5.994;2023-06-22T00:54:35;23.10;99.50
49224;DHT22;35050;51.316;5.994;2023-06-22T00:57:01;22.90;99.90
49224;DHT22;35050;51.316;5.994;2023-06-22T00:59:27;23.10;99.90
49224;DHT22;35050;51.316;5.994;2023-06-22T01:01:53;23.00;99.90
49224;DHT22;35050;51.316;5.994;2023-06-22T01:04:19;23.00;99.90
49224;DHT22;35050;51.316;5.994;2023-06-22T01:06:53;22.90;99.90
49224;DHT22;35050;51.316;5.994;2023-06-22T01:09:28;22.90;99.90
49224;DHT22;35050;51.316;5.994;2023-06-22T01:12:05;22.90;99.90
49224;DHT22;35050;51.316;5.994;2023-06-22T01:14:50;22.90;99.90
49224;DHT22;35050;51.316;5.994;2023-06-22T01:17:19;22.90;99.90
49224;DHT22;35050;51.316;5.994;2023-06-22T01:19:48;22.90;99.90
49224;DHT22;35050;51.316;5.994;2023-06-22T01:22:22;22.90;99.90
49224;DHT22;35050;51.316;5.994;2023-06-22T01:28:03;23.00;99.90
49224;DHT22;35050;51.316;5.994;2023-06-22T01:30:31;23.00;99.90
49224;DHT22;35050;51.316;5.994;2023-06-22T01:33:02;23.00;99.90
49224;DHT22;35050;51.316;5.994;2023-06-22T01:35:29;23.00;99.90
49224;DHT22;35050;51.316;5.994;2023-06-22T01:37:56;22.80;99.90
49224;DHT22;35050;51.316;5.994;2023-06-22T01:40:22;22.90;99.90
49224;DHT22;35050;51.316;5.994;2023-06-22T01:42:48;23.00;99.90
49224;DHT22;35050;51.316;5.994;2023-06-22T01:45:15;22.80;99.90
49224;DHT22;35050;51.316;5.994;2023-06-22T01:47:42;22.90;99.90
49224;DHT22;35050;51.316;5.994;2023-06-22T01:50:08;22.90;99.90
49224;DHT22;35050;51.316;5.994;2023-06-22T01:52:34;22.80;99.90
49224;DHT22;35050;51.316;5.994;2023-06-22T01:55:00;22.70;99.90
49224;DHT22;35050;51.316;5.994;2023-06-22T01:57:27;22.70;99.90
49224;DHT22;35050;51.316;5.994;2023-06-22T02:00:02;22.80;99.90
49224;DHT22;35050;51.316;5.994;2023-06-22T02:02:40;22.50;99.90
49224;DHT22;35050;51.316;5.994;2023-06-22T02:05:09;22.70;99.90
49224;DHT22;35050;51.316;5.994;2023-06-22T02:07:44;22.70;99.90
49224;DHT22;35050;51.316;5.994;2023-06-22T02:10:14;22.70;99.90
49224;DHT22;35050;51.316;5.994;2023-06-22T02:12:42;22.70;99.90
49224;DHT22;35050;51.316;5.994;2023-06-22T02:15:09;22.60;99.90
49224;DHT22;35050;51.316;5.994;2023-06-22T02:17:35;22.50;99.90
49224;DHT22;35050;51.316;5.994;2023-06-22T02:20:03;22.30;99.90
49224;DHT22;35050;51.316;5.994;2023-06-22T02:22:34;22.30;99.90
49224;DHT22;35050;51.316;5.994;2023-06-22T02:24:59;22.40;99.90
49224;DHT22;35050;51.316;5.994;2023-06-22T02:27:25;22.40;99.90
49224;DHT22;35050;51.316;5.994;2023-06-22T02:29:51;22.40;99.90
49224;DHT22;35050;51.316;5.994;2023-06-22T02:32:16;22.40;99.90
49224;DHT22;35050;51.316;5.994;2023-06-22T02:34:43;22.50;99.90
49224;DHT22;35050;51.316;5.994;2023-06-22T02:37:13;22.40;99.90
49224;DHT22;35050;51.316;5.994;2023-06-22T02:39:40;22.40;99.90
49224;DHT22;35050;51.316;5.994;2023-06-22T02:42:06;22.40;99.90
49224;DHT22;35050;51.316;5.994;2023-06-22T02:44:32;22.30;99.90
49224;DHT22;35050;51.316;5.994;2023-06-22T02:46:58;22.50;99.90
49224;DHT22;35050;51.316;5.994;2023-06-22T02:49:23;22.40;99.90
49224;DHT22;35050;51.316;5.994;2023-06-22T02:51:49;22.30;99.90
49224;DHT22;35050;51.316;5.994;2023-06-22T02:54:15;22.30;99.90
49224;DHT22;35050;51.316;5.994;2023-06-22T02:56:42;22.40;99.90
49224;DHT22;35050;51.316;5.994;2023-06-22T02:59:10;22.40;99.90
49224;DHT22;35050;51.316;5.994;2023-06-22T03:01:36;22.40;99.90
49224;DHT22;35050;51.316;5.994;2023-06-22T03:04:08;22.30;99.90
49224;DHT22;35050;51.316;5.994;2023-06-22T03:06:35;22.20;99.90
49224;DHT22;35050;51.316;5.994;2023-06-22T03:09:03;22.10;99.90
49224;DHT22;35050;51.316;5.994;2023-06-22T03:11:30;22.20;99.90
49224;DHT22;35050;51.316;5.994;2023-06-22T03:13:56;22.10;99.90
49224;DHT22;35050;51.316;5.994;2023-06-22T03:16:22;22.10;99.90
49224;DHT22;35050;51.316;5.994;2023-06-22T03:18:47;22.00;99.90
49224;DHT22;35050;51.316;5.994;2023-06-22T03:21:13;21.90;99.90
49224;DHT22;35050;51.316;5.994;2023-06-22T03:23:43;21.90;99.90
49224;DHT22;35050;51.316;5.994;2023-06-22T03:26:09;21.90;99.90
49224;DHT22;35050;51.316;5.994;2023-06-22T03:28:36;21.60;99.90
49224;DHT22;35050;51.316;5.994;2023-06-22T03:31:03;21.70;99.90
49224;DHT22;35050;51.316;5.994;2023-06-22T03:33:29;21.70;99.90
49224;DHT22;35050;51.316;5.994;2023-06-22T03:35:55;21.70;99.90
49224;DHT22;35050;51.316;5.994;2023-06-22T03:38:20;21.80;99.90
49224;DHT22;35050;51.316;5.994;2023-06-22T03:40:46;21.80;99.90
49224;DHT22;35050;51.316;5.994;2023-06-22T03:43:12;21.60;99.90
49224;DHT22;35050;51.316;5.994;2023-06-22T03:45:37;21.80;99.90
49224;DHT22;35050;51.316;5.994;2023-06-22T03:48:03;21.70;99.90
49224;DHT22;35050;51.316;5.994;2023-06-22T03:50:29;21.80;99.90
49224;DHT22;35050;51.316;5.994;2023-06-22T03:52:55;21.70;99.90
49224;DHT22;35050;51.316;5.994;2023-06-22T03:55:21;21.70;99.90
49224;DHT22;35050;51.316;5.994;2023-06-22T03:57:47;21.70;99.90
49224;DHT22;35050;51.316;5.994;2023-06-22T04:00:13;21.70;99.90
49224;DHT22;35050;51.316;5.994;2023-06-22T04:02:39;21.70;99.90
49224;DHT22;35050;51.316;5.994;2023-06-22T04:05:05;21.80;99.90
49224;DHT22;35050;51.316;5.994;2023-06-22T04:07:31;21.70;99.90
49224;DHT22;35050;51.316;5.994;2023-06-22T04:09:56;21.60;99.90
49224;DHT22;35050;51.316;5.994;2023-06-22T04:12:22;21.70;99.90
49224;DHT22;35050;51.316;5.994;2023-06-22T04:14:48;21.70;99.90
49224;DHT22;35050;51.316;5.994;2023-06-22T04:17:13;21.70;99.90
49224;DHT22;35050;51.316;5.994;2023-06-22T04:19:43;21.70;99.90
49224;DHT22;35050;51.316;5.994;2023-06-22T04:22:08;21.50;99.90
49224;DHT22;35050;51.316;5.994;2023-06-22T04:24:35;21.50;99.90
49224;DHT22;35050;51.316;5.994;2023-06-22T04:27:01;21.50;99.90
49224;DHT22;35050;51.316;5.994;2023-06-22T04:29:29;21.50;99.90
49224;DHT22;35050;51.316;5.994;2023-06-22T04:31:56;21.40;99.90
49224;DHT22;35050;51.316;5.994;2023-06-22T04:34:24;21.50;99.90
49224;DHT22;35050;51.316;5.994;2023-06-22T04:36:51;21.40;99.90
49224;DHT22;35050;51.316;5.994;2023-06-22T04:39:17;21.40;99.90
49224;DHT22;35050;51.316;5.994;2023-06-22T04:41:44;21.50;99.90
49224;DHT22;35050;51.316;5.994;2023-06-22T04:44:13;21.50;99.90
49224;DHT22;35050;51.316;5.994;2023-06-22T04:46:50;21.50;99.90
49224;DHT22;35050;51.316;5.994;2023-06-22T04:49:20;21.40;99.90
49224;DHT22;35050;51.316;5.994;2023-06-22T04:51:46;21.60;99.90
49224;DHT22;35050;51.316;5.994;2023-06-22T04:54:11;21.50;99.90
49224;DHT22;35050;51.316;5.994;2023-06-22T04:56:37;21.60;99.90
49224;DHT22;35050;51.316;5.994;2023-06-22T04:59:06;21.60;99.90
49224;DHT22;35050;51.316;5.994;2023-06-22T05:01:32;21.70;99.90
49224;DHT22;35050;51.316;5.994;2023-06-22T05:04:00;21.90;99.90
49224;DHT22;35050;51.316;5.994;2023-06-22T05:06:27;21.80;99.90
49224;DHT22;35050;51.316;5.994;2023-06-22T05:08:57;21.90;99.90
49224;DHT22;35050;51.316;5.994;2023-06-22T05:11:26;21.80;99.90
49224;DHT22;35050;51.316;5.994;2023-06-22T05:13:52;21.80;99.90
49224;DHT22;35050;51.316;5.994;2023-06-22T05:16:18;21.80;99.90
49224;DHT22;35050;51.316;5.994;2023-06-22T05:18:52;21.90;99.90
49224;DHT22;35050;51.316;5.994;2023-06-22T05:21:22;21.90;99.90
49224;DHT22;35050;51.316;5.994;2023-06-22T05:23:48;21.90;99.90
49224;DHT22;35050;51.316;5.994;2023-06-22T05:26:14;22.00;99.90
49224;DHT22;35050;51.316;5.994;2023-06-22T05:28:40;22.20;99.90
49224;DHT22;35050;51.316;5.994;2023-06-22T05:31:05;22.10;99.90
49224;DHT22;35050;51.316;5.994;2023-06-22T05:33:31;22.20;99.90
49224;DHT22;35050;51.316;5.994;2023-06-22T05:35:56;22.20;99.90
49224;DHT22;35050;51.316;5.994;2023-06-22T05:38:22;22.20;99.90
49224;DHT22;35050;51.316;5.994;2023-06-22T05:40:48;22.20;99.90
49224;DHT22;35050;51.316;5.994;2023-06-22T05:43:13;22.30;99.90
49224;DHT22;35050;51.316;5.994;2023-06-22T05:45:39;22.30;99.90
49224;DHT22;35050;51.316;5.994;2023-06-22T05:48:05;22.30;99.90
49224;DHT22;35050;51.316;5.994;2023-06-22T05:50:30;22.20;99.90
49224;DHT22;35050;51.316;5.994;2023-06-22T05:52:56;22.30;99.90
49224;DHT22;35050;51.316;5.994;2023-06-22T05:55:22;22.40;99.90
49224;DHT22;35050;51.316;5.994;2023-06-22T05:57:47;22.40;99.90
49224;DHT22;35050;51.316;5.994;2023-06-22T06:00:13;22.40;99.90
49224;DHT22;35050;51.316;5.994;2023-06-22T06:02:40;22.40;99.90
49224;DHT22;35050;51.316;5.994;2023-06-22T06:05:12;22.40;99.90
49224;DHT22;35050;51.316;5.994;2023-06-22T06:07:44;22.40;99.90
49224;DHT22;35050;51.316;5.994;2023-06-22T06:10:10;22.40;99.90
49224;DHT22;35050;51.316;5.994;2023-06-22T06:12:36;22.20;99.90
49224;DHT22;35050;51.316;5.994;2023-06-22T06:15:02;22.30;99.90
49224;DHT22;35050;51.316;5.994;2023-06-22T06:17:28;22.40;99.90
49224;DHT22;35050;51.316;5.994;2023-06-22T06:19:54;22.40;99.90
49224;DHT22;35050;51.316;5.994;2023-06-22T06:22:19;22.50;99.90
49224;DHT22;35050;51.316;5.994;2023-06-22T06:24:47;22.70;99.90
49224;DHT22;35050;51.316;5.994;2023-06-22T06:27:13;22.60;99.90
49224;DHT22;35050;51.316;5.994;2023-06-22T06:29:39;22.60;99.90
49224;DHT22;35050;51.316;5.994;2023-06-22T06:32:05;22.60;99.90
49224;DHT22;35050;51.316;5.994;2023-06-22T06:34:30;22.60;99.90
49224;DHT22;35050;51.316;5.994;2023-06-22T06:36:56;22.60;99.90
49224;DHT22;35050;51.316;5.994;2023-06-22T06:39:22;22.60;99.90
49224;DHT22;35050;51.316;5.994;2023-06-22T06:41:47;22.50;99.90
49224;DHT22;35050;51.316;5.994;2023-06-22T06:44:13;22.60;99.90
49224;DHT22;35050;51.316;5.994;2023-06-22T06:46:39;22.70;99.90
49224;DHT22;35050;51.316;5.994;2023-06-22T06:49:04;22.50;99.90
49224;DHT22;35050;51.316;5.994;2023-06-22T06:51:30;22.50;99.90
49224;DHT22;35050;51.316;5.994;2023-06-22T06:53:56;22.60;99.90
49224;DHT22;35050;51.316;5.994;2023-06-22T06:56:21;22.70;99.90
49224;DHT22;35050;51.316;5.994;2023-06-22T06:58:50;22.70;99.90
49224;DHT22;35050;51.316;5.994;2023-06-22T07:01:16;22.80;99.90
49224;DHT22;35050;51.316;5.994;2023-06-22T07:03:42;22.80;99.90
49224;DHT22;35050;51.316;5.994;2023-06-22T07:06:08;22.70;99.90
49224;DHT22;35050;51.316;5.994;2023-06-22T07:08:34;22.70;99.90
49224;DHT22;35050;51.316;5.994;2023-06-22T07:11:01;22.80;99.90
49224;DHT22;35050;51.316;5.994;2023-06-22T07:13:27;22.80;99.90
49224;DHT22;35050;51.316;5.994;2023-06-22T07:15:53;22.80;99.90
49224;DHT22;35050;51.316;5.994;2023-06-22T07:18:19;22.80;99.90
49224;DHT22;35050;51.316;5.994;2023-06-22T07:20:44;22.80;99.90
49224;DHT22;35050;51.316;5.994;2023-06-22T07:23:10;22.90;99.90
49224;DHT22;35050;51.316;5.994;2023-06-22T07:25:35;22.90;99.90
49224;DHT22;35050;51.316;5.994;2023-06-22T07:28:03;22.90;99.90
49224;DHT22;35050;51.316;5.994;2023-06-22T07:30:30;22.80;99.90
49224;DHT22;35050;51.316;5.994;2023-06-22T07:32:57;22.90;99.90
49224;DHT22;35050;51.316;5.994;2023-06-22T07:35:23;22.90;99.90
49224;DHT22;35050;51.316;5.994;2023-06-22T07:37:49;23.00;99.90
49224;DHT22;35050;51.316;5.994;2023-06-22T07:40:15;23.00;99.90
49224;DHT22;35050;51.316;5.994;2023-06-22T07:42:40;23.20;99.90
49224;DHT22;35050;51.316;5.994;2023-06-22T07:45:07;23.20;99.90
49224;DHT22;35050;51.316;5.994;2023-06-22T07:47:36;23.20;99.90
49224;DHT22;35050;51.316;5.994;2023-06-22T07:50:02;23.30;99.90
49224;DHT22;35050;51.316;5.994;2023-06-22T07:52:28;23.30;99.90
49224;DHT22;35050;51.316;5.994;2023-06-22T07:54:54;23.30;99.90
49224;DHT22;35050;51.316;5.994;2023-06-22T07:57:20;23.30;99.90
49224;DHT22;35050;51.316;5.994;2023-06-22T07:59:46;23.20;99.90
49224;DHT22;35050;51.316;5.994;2023-06-22T08:02:12;23.20;99.90
49224;DHT22;35050;51.316;5.994;2023-06-22T08:04:39;23.40;99.90
49224;DHT22;35050;51.316;5.994;2023-06-22T08:07:05;23.20;99.90
49224;DHT22;35050;51.316;5.994;2023-06-22T08:09:32;23.30;99.90
49224;DHT22;35050;51.316;5.994;2023-06-22T08:11:58;23.30;99.90
49224;DHT22;35050;51.316;5.994;2023-06-22T08:14:25;23.20;99.90
49224;DHT22;35050;51.316;5.994;2023-06-22T08:16:51;23.30;99.90
49224;DHT22;35050;51.316;5.994;2023-06-22T08:19:17;23.40;99.90
49224;DHT22;35050;51.316;5.994;2023-06-22T08:21:43;23.40;99.90
49224;DHT22;35050;51.316;5.994;2023-06-22T08:24:09;23.70;99.90
49224;DHT22;35050;51.316;5.994;2023-06-22T08:26:35;23.80;99.90
49224;DHT22;35050;51.316;5.994;2023-06-22T08:29:03;24.00;99.90
49224;DHT22;35050;51.316;5.994;2023-06-22T08:31:29;23.80;99.90
49224;DHT22;35050;51.316;5.994;2023-06-22T08:33:55;23.80;99.90
49224;DHT22;35050;51.316;5.994;2023-06-22T08:36:20;23.90;99.90
49224;DHT22;35050;51.316;5.994;2023-06-22T08:38:46;24.10;99.90
49224;DHT22;35050;51.316;5.994;2023-06-22T08:41:15;24.00;99.90
49224;DHT22;35050;51.316;5.994;2023-06-22T08:43:41;24.00;99.90
49224;DHT22;35050;51.316;5.994;2023-06-22T08:46:08;24.20;99.90
49224;DHT22;35050;51.316;5.994;2023-06-22T08:48:34;24.20;99.90
49224;DHT22;35050;51.316;5.994;2023-06-22T08:50:59;24.40;99.90
49224;DHT22;35050;51.316;5.994;2023-06-22T08:53:25;24.70;99.90
49224;DHT22;35050;51.316;5.994;2023-06-22T08:55:51;24.70;99.90
49224;DHT22;35050;51.316;5.994;2023-06-22T08:58:16;24.60;99.90
49224;DHT22;35050;51.316;5.994;2023-06-22T09:00:43;24.80;99.90
49224;DHT22;35050;51.316;5.994;2023-06-22T09:03:09;24.80;99.90
49224;DHT22;35050;51.316;5.994;2023-06-22T09:05:34;24.80;99.90
49224;DHT22;35050;51.316;5.994;2023-06-22T09:08:00;24.90;99.90
49224;DHT22;35050;51.316;5.994;2023-06-22T09:10:26;24.90;99.90
49224;DHT22;35050;51.316;5.994;2023-06-22T09:12:52;25.00;99.90
49224;DHT22;35050;51.316;5.994;2023-06-22T09:15:17;25.00;99.90
49224;DHT22;35050;51.316;5.994;2023-06-22T09:17:43;24.70;99.90
49224;DHT22;35050;51.316;5.994;2023-06-22T09:20:10;24.80;99.90
49224;DHT22;35050;51.316;5.994;2023-06-22T09:22:36;24.60;99.90
49224;DHT22;35050;51.316;5.994;2023-06-22T09:25:02;24.60;99.90
49224;DHT22;35050;51.316;5.994;2023-06-22T09:27:29;24.70;99.90
49224;DHT22;35050;51.316;5.994;2023-06-22T09:29:54;24.70;99.90
49224;DHT22;35050;51.316;5.994;2023-06-22T09:32:20;24.60;99.90
49224;DHT22;35050;51.316;5.994;2023-06-22T09:34:45;24.60;99.90
49224;DHT22;35050;51.316;5.994;2023-06-22T09:37:12;24.60;99.90
49224;DHT22;35050;51.316;5.994;2023-06-22T09:39:38;24.40;99.90
49224;DHT22;35050;51.316;5.994;2023-06-22T09:42:04;24.40;99.90
49224;DHT22;35050;51.316;5.994;2023-06-22T09:44:30;24.30;99.90
49224;DHT22;35050;51.316;5.994;2023-06-22T09:46:56;24.40;99.90
49224;DHT22;35050;51.316;5.994;2023-06-22T09:49:22;24.40;99.90
49224;DHT22;35050;51.316;5.994;2023-06-22T09:51:48;24.50;99.90
49224;DHT22;35050;51.316;5.994;2023-06-22T09:54:15;24.50;99.90
49224;DHT22;35050;51.316;5.994;2023-06-22T09:56:40;24.60;99.90
49224;DHT22;35050;51.316;5.994;2023-06-22T09:59:06;24.70;99.90
49224;DHT22;35050;51.316;5.994;2023-06-22T10:01:32;25.10;99.90
49224;DHT22;35050;51.316;5.994;2023-06-22T10:03:57;25.10;99.90
49224;DHT22;35050;51.316;5.994;2023-06-22T10:06:23;25.20;99.90
49224;DHT22;35050;51.316;5.994;2023-06-22T10:08:51;25.30;99.90
49224;DHT22;35050;51.316;5.994;2023-06-22T10:11:16;25.30;99.90
49224;DHT22;35050;51.316;5.994;2023-06-22T10:13:42;25.00;99.90
49224;DHT22;35050;51.316;5.994;2023-06-22T10:16:08;25.10;99.90
49224;DHT22;35050;51.316;5.994;2023-06-22T10:18:34;24.90;99.90
49224;DHT22;35050;51.316;5.994;2023-06-22T10:21:00;24.90;99.90
49224;DHT22;35050;51.316;5.994;2023-06-22T10:23:25;24.70;99.90
49224;DHT22;35050;51.316;5.994;2023-06-22T10:25:51;24.60;99.90
49224;DHT22;35050;51.316;5.994;2023-06-22T10:28:16;24.90;99.90
49224;DHT22;35050;51.316;5.994;2023-06-22T10:30:43;24.80;99.90
49224;DHT22;35050;51.316;5.994;2023-06-22T10:33:12;24.80;99.90
49224;DHT22;35050;51.316;5.994;2023-06-22T10:35:38;24.90;99.90
49224;DHT22;35050;51.316;5.994;2023-06-22T10:38:04;25.00;99.90
49224;DHT22;35050;51.316;5.994;2023-06-22T10:40:30;24.60;99.90
49224;DHT22;35050;51.316;5.994;2023-06-22T10:42:56;24.60;99.90
49224;DHT22;35050;51.316;5.994;2023-06-22T10:45:21;24.70;99.90
49224;DHT22;35050;51.316;5.994;2023-06-22T10:47:47;24.60;99.90
49224;DHT22;35050;51.316;5.994;2023-06-22T10:50:13;24.30;99.90
49224;DHT22;35050;51.316;5.994;2023-06-22T10:52:39;24.40;99.90
49224;DHT22;35050;51.316;5.994;2023-06-22T10:55:05;24.30;99.90
49224;DHT22;35050;51.316;5.994;2023-06-22T10:57:31;24.20;99.90
49224;DHT22;35050;51.316;5.994;2023-06-22T10:59:56;24.40;99.90
49224;DHT22;35050;51.316;5.994;2023-06-22T11:02:23;24.10;99.90
49224;DHT22;35050;51.316;5.994;2023-06-22T11:04:49;24.20;99.90
49224;DHT22;35050;51.316;5.994;2023-06-22T11:07:15;24.30;99.90
49224;DHT22;35050;51.316;5.994;2023-06-22T11:09:43;24.20;99.90
49224;DHT22;35050;51.316;5.994;2023-06-22T11:12:09;24.10;99.90
49224;DHT22;35050;51.316;5.994;2023-06-22T11:14:34;24.20;99.90
49224;DHT22;35050;51.316;5.994;2023-06-22T11:17:00;24.00;99.90
49224;DHT22;35050;51.316;5.994;2023-06-22T11:19:26;24.00;99.90
49224;DHT22;35050;51.316;5.994;2023-06-22T11:21:52;24.10;99.90
49224;DHT22;35050;51.316;5.994;2023-06-22T11:24:17;24.00;99.90
49224;DHT22;35050;51.316;5.994;2023-06-22T11:26:43;23.90;99.90
49224;DHT22;35050;51.316;5.994;2023-06-22T11:29:09;24.00;99.90
49224;DHT22;35050;51.316;5.994;2023-06-22T11:31:35;23.90;99.90
49224;DHT22;35050;51.316;5.994;2023-06-22T11:34:01;23.90;99.90
49224;DHT22;35050;51.316;5.994;2023-06-22T11:36:27;23.70;99.90
49224;DHT22;35050;51.316;5.994;2023-06-22T11:38:52;23.60;99.90
49224;DHT22;35050;51.316;5.994;2023-06-22T11:41:18;23.60;99.90
49224;DHT22;35050;51.316;5.994;2023-06-22T11:43:44;23.70;99.90
49224;DHT22;35050;51.316;5.994;2023-06-22T11:46:10;23.80;99.90
49224;DHT22;35050;51.316;5.994;2023-06-22T11:48:36;23.90;99.90
49224;DHT22;35050;51.316;5.994;2023-06-22T11:51:02;23.90;99.90
49224;DHT22;35050;51.316;5.994;2023-06-22T11:53:29;24.40;99.90
49224;DHT22;35050;51.316;5.994;2023-06-22T11:55:54;24.50;99.90
49224;DHT22;35050;51.316;5.994;2023-06-22T11:58:20;24.50;99.90
49224;DHT22;35050;51.316;5.994;2023-06-22T12:00:46;24.50;99.90
49224;DHT22;35050;51.316;5.994;2023-06-22T12:03:12;24.40;99.90
49224;DHT22;35050;51.316;5.994;2023-06-22T12:05:38;24.50;99.90
49224;DHT22;35050;51.316;5.994;2023-06-22T12:08:04;24.40;99.90
49224;DHT22;35050;51.316;5.994;2023-06-22T12:10:30;24.30;99.90
49224;DHT22;35050;51.316;5.994;2023-06-22T12:12:56;24.20;99.90
49224;DHT22;35050;51.316;5.994;2023-06-22T12:15:23;24.00;99.90
49224;DHT22;35050;51.316;5.994;2023-06-22T12:17:49;23.90;99.90
49224;DHT22;35050;51.316;5.994;2023-06-22T12:20:14;23.90;99.90
49224;DHT22;35050;51.316;5.994;2023-06-22T12:22:40;23.80;99.90
49224;DHT22;35050;51.316;5.994;2023-06-22T12:25:07;23.60;99.90
49224;DHT22;35050;51.316;5.994;2023-06-22T12:27:34;23.80;99.90
49224;DHT22;35050;51.316;5.994;2023-06-22T12:30:00;24.00;99.90
49224;DHT22;35050;51.316;5.994;2023-06-22T12:32:26;23.70;99.90
49224;DHT22;35050;51.316;5.994;2023-06-22T12:34:51;23.80;99.90
49224;DHT22;35050;51.316;5.994;2023-06-22T12:37:17;23.70;99.90
49224;DHT22;35050;51.316;5.994;2023-06-22T12:39:43;23.70;99.90
49224;DHT22;35050;51.316;5.994;2023-06-22T12:42:09;23.80;99.90
49224;DHT22;35050;51.316;5.994;2023-06-22T12:44:38;23.80;99.90
49224;DHT22;35050;51.316;5.994;2023-06-22T12:47:05;23.60;99.90
49224;DHT22;35050;51.316;5.994;2023-06-22T12:49:31;23.70;99.90
49224;DHT22;35050;51.316;5.994;2023-06-22T12:51:56;23.60;99.90
49224;DHT22;35050;51.316;5.994;2023-06-22T12:54:22;23.40;99.90
49224;DHT22;35050;51.316;5.994;2023-06-22T12:56:49;23.10;99.90
49224;DHT22;35050;51.316;5.994;2023-06-22T12:59:15;23.00;99.90
49224;DHT22;35050;51.316;5.994;2023-06-22T13:01:42;23.10;99.90
49224;DHT22;35050;51.316;5.994;2023-06-22T13:04:09;23.10;99.90
49224;DHT22;35050;51.316;5.994;2023-06-22T13:06:36;23.20;99.90
49224;DHT22;35050;51.316;5.994;2023-06-22T13:09:02;23.40;99.90
49224;DHT22;35050;51.316;5.994;2023-06-22T13:11:30;23.30;99.90
49224;DHT22;35050;51.316;5.994;2023-06-22T13:13:56;23.50;99.90
49224;DHT22;35050;51.316;5.994;2023-06-22T13:16:21;23.30;99.90
49224;DHT22;35050;51.316;5.994;2023-06-22T13:18:47;23.30;99.90
49224;DHT22;35050;51.316;5.994;2023-06-22T13:21:12;23.60;99.90
49224;DHT22;35050;51.316;5.994;2023-06-22T13:23:39;23.50;99.90
49224;DHT22;35050;51.316;5.994;2023-06-22T13:26:05;23.00;99.90
49224;DHT22;35050;51.316;5.994;2023-06-22T13:28:30;23.10;99.90
49224;DHT22;35050;51.316;5.994;2023-06-22T13:30:56;23.30;99.90
49224;DHT22;35050;51.316;5.994;2023-06-22T13:33:22;23.00;99.90
49224;DHT22;35050;51.316;5.994;2023-06-22T13:35:47;23.00;99.90
49224;DHT22;35050;51.316;5.994;2023-06-22T13:38:13;23.10;99.90
49224;DHT22;35050;51.316;5.994;2023-06-22T13:40:38;23.30;99.90
49224;DHT22;35050;51.316;5.994;2023-06-22T13:43:05;23.30;99.90
49224;DHT22;35050;51.316;5.994;2023-06-22T13:45:31;23.20;99.90
49224;DHT22;35050;51.316;5.994;2023-06-22T13:47:57;22.90;99.90
49224;DHT22;35050;51.316;5.994;2023-06-22T13:50:22;23.10;99.90
49224;DHT22;35050;51.316;5.994;2023-06-22T13:52:48;23.00;99.90
49224;DHT22;35050;51.316;5.994;2023-06-22T13:55:14;22.80;99.90
49224;DHT22;35050;51.316;5.994;2023-06-22T13:57:40;22.70;99.90
49224;DHT22;35050;51.316;5.994;2023-06-22T14:00:07;22.90;99.90
49224;DHT22;35050;51.316;5.994;2023-06-22T14:02:37;22.70;99.90
49224;DHT22;35050;51.316;5.994;2023-06-22T14:05:03;22.60;99.90
49224;DHT22;35050;51.316;5.994;2023-06-22T14:07:29;22.70;99.90
49224;DHT22;35050;51.316;5.994;2023-06-22T14:09:54;22.50;99.90
49224;DHT22;35050;51.316;5.994;2023-06-22T14:12:20;22.60;99.90
49224;DHT22;35050;51.316;5.994;2023-06-22T14:14:46;22.50;99.90
49224;DHT22;35050;51.316;5.994;2023-06-22T14:17:11;22.50;99.90
49224;DHT22;35050;51.316;5.994;2023-06-22T14:19:37;22.50;99.90
49224;DHT22;35050;51.316;5.994;2023-06-22T14:22:03;22.40;99.90
49224;DHT22;35050;51.316;5.994;2023-06-22T14:24:28;22.50;99.90
49224;DHT22;35050;51.316;5.994;2023-06-22T14:26:55;22.40;99.90
49224;DHT22;35050;51.316;5.994;2023-06-22T14:29:21;22.60;99.90
49224;DHT22;35050;51.316;5.994;2023-06-22T14:31:48;22.50;99.90
49224;DHT22;35050;51.316;5.994;2023-06-22T14:34:14;22.30;99.90
49224;DHT22;35050;51.316;5.994;2023-06-22T14:36:41;22.20;99.90
49224;DHT22;35050;51.316;5.994;2023-06-22T14:39:07;22.10;99.90
49224;DHT22;35050;51.316;5.994;2023-06-22T14:41:32;22.00;99.90
49224;DHT22;35050;51.316;5.994;2023-06-22T14:43:58;22.00;99.90
49224;DHT22;35050;51.316;5.994;2023-06-22T14:46:23;21.90;99.90
49224;DHT22;35050;51.316;5.994;2023-06-22T14:48:49;21.90;99.90
49224;DHT22;35050;51.316;5.994;2023-06-22T14:51:15;21.90;99.90
49224;DHT22;35050;51.316;5.994;2023-06-22T14:53:42;21.70;99.90
49224;DHT22;35050;51.316;5.994;2023-06-22T14:56:08;21.70;99.90
49224;DHT22;35050;51.316;5.994;2023-06-22T14:58:34;21.80;99.90
49224;DHT22;35050;51.316;5.994;2023-06-22T15:01:03;21.70;99.90
49224;DHT22;35050;51.316;5.994;2023-06-22T15:03:33;21.60;99.90
49224;DHT22;35050;51.316;5.994;2023-06-22T15:06:01;21.70;99.90
49224;DHT22;35050;51.316;5.994;2023-06-22T15:08:27;21.70;99.90
49224;DHT22;35050;51.316;5.994;2023-06-22T15:10:52;21.50;99.90
49224;DHT22;35050;51.316;5.994;2023-06-22T15:13:18;21.60;99.90
49224;DHT22;35050;51.316;5.994;2023-06-22T15:15:46;21.30;99.90
49224;DHT22;35050;51.316;5.994;2023-06-22T15:18:16;21.20;99.90
49224;DHT22;35050;51.316;5.994;2023-06-22T15:20:42;21.10;99.90
49224;DHT22;35050;51.316;5.994;2023-06-22T15:23:11;21.10;99.90
49224;DHT22;35050;51.316;5.994;2023-06-22T15:25:37;21.20;99.90
49224;DHT22;35050;51.316;5.994;2023-06-22T15:28:02;21.00;99.90